Time;durP1;ratioP1;P1;durP2;ratioP2;P2;SDS_P1;SDS_P2;PMS_P1;PMS_P2;Temp;Humidity;BMP_temperature;BMP_pressure;BME280_temperature;BME280_humidity;BME280_pressure;Samples;Min_cycle;Max_cycle;Signal;HPM_P1;HPM_P2
2021/08/23 00:01:40;;;;;;;3.70;3.40;;;15.00;99.90;;;;;;5058069;28;20471;-93
2021/08/23 00:04:07;;;;;;;5.93;3.20;;;15.10;99.90;;;;;;5057726;28;21009;-94
2021/08/23 00:06:35;;;;;;;3.63;3.33;;;15.10;99.90;;;;;;5058419;28;20467;-94
2021/08/23 00:09:04;;;;;;;5.43;3.40;;;15.00;99.90;;;;;;5059304;28;20571;-93
2021/08/23 00:11:31;;;;;;;4.20;3.80;;;15.00;99.90;;;;;;5059177;28;20482;-93
2021/08/23 00:13:58;;;;;;;5.00;3.70;;;15.00;99.90;;;;;;5058849;28;20953;-93
2021/08/23 00:16:25;;;;;;;5.50;3.20;;;15.00;99.90;;;;;;5058356;28;20474;-92
2021/08/23 00:18:52;;;;;;;6.13;4.10;;;15.00;99.90;;;;;;5058293;28;20498;-93
2021/08/23 00:21:24;;;;;;;3.73;3.43;;;15.00;99.90;;;;;;5058581;28;20468;-93
2021/08/23 00:24:05;;;;;;;4.40;2.70;;;15.00;99.90;;;;;;5059082;28;20816;-91
2021/08/23 00:26:32;;;;;;;3.23;2.97;;;15.00;99.90;;;;;;5060165;28;20467;-91
2021/08/23 00:28:58;;;;;;;5.00;3.80;;;15.00;99.90;;;;;;5060089;28;20491;-94
2021/08/23 00:31:25;;;;;;;4.60;3.33;;;15.00;99.90;;;;;;5060317;28;20459;-94
2021/08/23 00:33:52;;;;;;;4.07;3.40;;;15.10;99.90;;;;;;5059925;28;20483;-93
2021/08/23 00:36:19;;;;;;;4.27;3.53;;;15.10;99.90;;;;;;5059078;28;20468;-94
2021/08/23 00:38:46;;;;;;;4.63;2.90;;;15.10;99.90;;;;;;5058369;28;21082;-93
2021/08/23 00:41:14;;;;;;;3.83;2.87;;;15.00;99.90;;;;;;5061706;28;20460;-93
2021/08/23 00:43:41;;;;;;;4.10;3.40;;;15.00;99.90;;;;;;5064886;28;20475;-93
2021/08/23 00:46:08;;;;;;;4.20;3.30;;;15.00;99.90;;;;;;5067984;28;20535;-93
2021/08/23 00:48:35;;;;;;;5.53;4.17;;;15.00;99.90;;;;;;5071750;28;20455;-92
2021/08/23 00:51:04;;;;;;;3.63;2.87;;;14.90;99.90;;;;;;5069648;28;20466;-94
2021/08/23 00:53:30;;;;;;;3.40;3.10;;;14.90;99.90;;;;;;5068653;28;20948;-92
2021/08/23 00:55:57;;;;;;;4.67;3.40;;;14.80;99.90;;;;;;5071548;28;20470;-93
2021/08/23 00:58:26;;;;;;;3.80;3.40;;;14.80;99.90;;;;;;5068727;28;20487;-93
2021/08/23 01:00:58;;;;;;;3.50;3.20;;;14.80;99.90;;;;;;5069899;28;20446;-93
2021/08/23 01:03:33;;;;;;;4.17;3.17;;;14.80;99.90;;;;;;5074877;28;20551;-92
2021/08/23 01:06:02;;;;;;;3.50;2.97;;;14.80;99.90;;;;;;5075663;28;20462;-93
2021/08/23 01:08:37;;;;;;;3.40;2.97;;;14.80;99.90;;;;;;5071572;28;20483;-93
2021/08/23 01:11:07;;;;;;;4.87;3.50;;;14.80;99.90;;;;;;5066386;28;20566;-93
2021/08/23 01:13:37;;;;;;;4.40;3.60;;;14.80;99.90;;;;;;5063255;28;20937;-93
2021/08/23 01:16:04;;;;;;;3.90;3.60;;;14.70;99.90;;;;;;5059240;28;20751;-93
2021/08/23 01:18:31;;;;;;;3.93;2.90;;;14.70;99.90;;;;;;5057218;28;20492;-94
2021/08/23 01:21:00;;;;;;;6.93;3.20;;;14.70;99.90;;;;;;5058016;28;20558;-93
2021/08/23 01:23:30;;;;;;;4.63;3.40;;;14.70;99.90;;;;;;5039913;28;20566;-92
2021/08/23 01:25:57;;;;;;;7.33;3.60;;;14.70;99.90;;;;;;5057062;28;20460;-93
2021/08/23 01:28:40;;;;;;;4.27;3.27;;;14.70;99.90;;;;;;5057904;28;20496;-94
2021/08/23 01:31:21;;;;;;;4.30;3.10;;;14.70;99.90;;;;;;5057887;28;20455;-93
2021/08/23 01:33:50;;;;;;;5.10;3.43;;;14.70;99.90;;;;;;5057408;28;20455;-93
2021/08/23 01:36:17;;;;;;;3.40;3.10;;;14.70;99.90;;;;;;5057303;28;20469;-93
2021/08/23 01:38:44;;;;;;;5.80;3.30;;;14.60;99.90;;;;;;5058010;28;20487;-92
2021/08/23 01:41:11;;;;;;;4.13;3.30;;;14.70;99.90;;;;;;5057736;28;20460;-93
2021/08/23 01:43:38;;;;;;;3.40;3.10;;;14.70;99.90;;;;;;5058063;28;20482;-93
2021/08/23 01:46:05;;;;;;;7.63;3.83;;;14.60;99.90;;;;;;5057847;28;20459;-93
2021/08/23 01:48:32;;;;;;;3.73;3.20;;;14.60;99.90;;;;;;5058639;28;20479;-93
2021/08/23 01:51:00;;;;;;;4.23;3.33;;;14.60;99.90;;;;;;5057854;28;20460;-93
2021/08/23 01:53:27;;;;;;;3.20;2.90;;;14.60;99.90;;;;;;5060216;28;20558;-95
2021/08/23 01:55:54;;;;;;;4.90;3.50;;;14.60;99.90;;;;;;5056898;28;20459;-93
2021/08/23 01:58:21;;;;;;;6.40;2.90;;;14.60;99.90;;;;;;5056833;28;20483;-93
2021/08/23 02:00:48;;;;;;;5.00;3.70;;;14.60;99.90;;;;;;5057500;28;20738;-93
2021/08/23 02:03:15;;;;;;;5.03;3.23;;;14.60;99.90;;;;;;5057186;28;20463;-93
2021/08/23 02:05:41;;;;;;;4.90;3.60;;;14.60;99.90;;;;;;5057738;28;20831;-93
2021/08/23 02:08:10;;;;;;;7.67;3.20;;;14.60;99.90;;;;;;5057888;28;20495;-93
2021/08/23 02:10:37;;;;;;;4.27;3.57;;;14.60;99.90;;;;;;5058439;28;20465;-93
2021/08/23 02:13:04;;;;;;;4.53;3.60;;;14.60;99.90;;;;;;5058692;28;20468;-93
2021/08/23 02:15:31;;;;;;;5.20;3.10;;;14.60;99.90;;;;;;5058496;28;20456;-93
2021/08/23 02:17:58;;;;;;;4.40;3.50;;;14.60;99.90;;;;;;5060793;28;20554;-93
2021/08/23 02:20:25;;;;;;;3.43;3.00;;;14.70;99.90;;;;;;5070961;28;20495;-93
2021/08/23 02:22:52;;;;;;;4.83;3.43;;;14.70;99.90;;;;;;5061735;28;20459;-93
2021/08/23 02:25:22;;;;;;;4.57;2.97;;;14.70;99.90;;;;;;5059586;28;20479;-93
2021/08/23 02:27:50;;;;;;;5.23;2.83;;;14.70;99.90;;;;;;5059088;28;20533;-93
2021/08/23 02:30:17;;;;;;;4.40;3.63;;;14.70;99.90;;;;;;5059628;28;20463;-93
2021/08/23 02:32:45;;;;;;;3.50;3.20;;;14.70;99.90;;;;;;5059918;28;20463;-93
2021/08/23 02:35:13;;;;;;;3.63;3.33;;;14.70;99.90;;;;;;5059730;28;20456;-93
2021/08/23 02:37:40;;;;;;;3.50;3.20;;;14.70;99.90;;;;;;5057496;28;20490;-94
2021/08/23 02:40:08;;;;;;;4.47;3.53;;;14.70;99.90;;;;;;5058741;28;20466;-94
2021/08/23 02:42:36;;;;;;;3.80;3.40;;;14.70;99.90;;;;;;5058307;28;20459;-93
2021/08/23 02:45:04;;;;;;;5.57;3.30;;;14.70;99.90;;;;;;5057992;28;20475;-93
2021/08/23 02:47:35;;;;;;;3.77;3.47;;;14.70;99.90;;;;;;5058127;28;20487;-93
2021/08/23 02:50:02;;;;;;;3.90;3.50;;;14.60;99.90;;;;;;5057290;28;20459;-93
2021/08/23 02:52:29;;;;;;;3.83;3.20;;;14.60;99.90;;;;;;5057455;28;20978;-93
2021/08/23 02:54:56;;;;;;;3.03;2.80;;;14.60;99.90;;;;;;5057494;28;20455;-92
2021/08/23 02:57:23;;;;;;;3.40;3.10;;;14.60;99.90;;;;;;5057597;28;20487;-93
2021/08/23 02:59:51;;;;;;;3.47;3.17;;;14.60;99.90;;;;;;5057590;28;20467;-93
2021/08/23 03:02:18;;;;;;;4.10;3.07;;;14.60;99.90;;;;;;5058305;28;20459;-93
2021/08/23 03:04:45;;;;;;;3.47;3.17;;;14.60;99.90;;;;;;5059818;28;20476;-93
2021/08/23 03:07:11;;;;;;;3.60;3.27;;;14.60;99.90;;;;;;5062370;28;20476;-92
2021/08/23 03:09:38;;;;;;;4.17;2.80;;;14.60;99.90;;;;;;5062485;28;20463;-93
2021/08/23 03:12:06;;;;;;;5.90;3.23;;;14.70;99.90;;;;;;5063325;28;20474;-92
2021/08/23 03:14:33;;;;;;;3.93;3.30;;;14.70;99.90;;;;;;5063353;28;20459;-94
2021/08/23 03:17:01;;;;;;;3.20;2.87;;;14.70;99.90;;;;;;5068132;28;20469;-93
2021/08/23 03:19:28;;;;;;;3.97;2.93;;;14.70;99.90;;;;;;5070378;28;20476;-94
2021/08/23 03:21:55;;;;;;;5.03;3.00;;;14.70;99.90;;;;;;5070596;28;20469;-93
2021/08/23 03:24:22;;;;;;;5.40;3.57;;;14.70;99.90;;;;;;5069265;28;20477;-94
2021/08/23 03:26:48;;;;;;;3.47;2.63;;;14.70;99.90;;;;;;5066975;28;20463;-92
2021/08/23 03:29:15;;;;;;;4.73;3.07;;;14.70;99.90;;;;;;5070194;28;20471;-96
2021/08/23 03:31:42;;;;;;;4.43;2.67;;;14.70;99.90;;;;;;5080533;28;20519;-95
2021/08/23 03:34:12;;;;;;;4.20;2.80;;;14.70;99.90;;;;;;5074505;28;20455;-93
2021/08/23 03:36:41;;;;;;;3.73;2.83;;;14.70;99.90;;;;;;5079912;28;20439;-96
2021/08/23 03:39:10;;;;;;;3.60;3.13;;;14.70;99.90;;;;;;5079545;28;20460;-96
2021/08/23 03:41:38;;;;;;;6.63;3.47;;;14.70;99.90;;;;;;5080354;28;20494;-93
2021/08/23 03:44:05;;;;;;;3.70;3.03;;;14.70;99.90;;;;;;5079931;28;20555;-93
2021/08/23 03:46:33;;;;;;;4.10;3.13;;;14.70;99.90;;;;;;5079763;28;20542;-94
2021/08/23 03:49:00;;;;;;;5.00;3.30;;;14.70;99.90;;;;;;5079462;28;20494;-95
2021/08/23 03:51:29;;;;;;;4.07;3.00;;;14.70;99.90;;;;;;5079319;28;20436;-95
2021/08/23 03:53:56;;;;;;;3.70;3.25;;;14.70;99.90;;;;;;5079195;28;20454;-93
2021/08/23 03:56:23;;;;;;;3.30;3.00;;;14.70;99.90;;;;;;5079734;28;20177;-94
2021/08/23 03:58:50;;;;;;;3.17;2.80;;;14.70;99.90;;;;;;5078886;28;20455;-94
2021/08/23 04:01:17;;;;;;;3.83;2.90;;;14.70;99.90;;;;;;5077536;28;20522;-93
2021/08/23 04:03:44;;;;;;;6.00;3.40;;;14.70;99.90;;;;;;5071027;28;20456;-92
2021/08/23 04:06:11;;;;;;;3.30;3.00;;;14.80;99.90;;;;;;5061867;28;20475;-94
2021/08/23 04:08:40;;;;;;;4.03;2.80;;;14.70;99.90;;;;;;5062204;28;20476;-93
2021/08/23 04:11:06;;;;;;;4.43;2.87;;;14.70;99.90;;;;;;5062450;28;20466;-93
2021/08/23 04:13:33;;;;;;;4.60;3.00;;;14.70;99.90;;;;;;5067239;28;20451;-93
2021/08/23 04:16:02;;;;;;;3.43;3.07;;;14.70;99.90;;;;;;5062271;28;20455;-93
2021/08/23 04:18:29;;;;;;;2.87;2.37;;;14.70;99.90;;;;;;5129917;22;20515;-71
2021/08/23 04:20:56;;;;;;;4.13;3.30;;;14.70;99.90;;;;;;5052592;28;20451;-71
2021/08/23 04:23:23;;;;;;;3.10;2.80;;;14.70;99.90;;;;;;5032867;28;20456;-72
2021/08/23 04:25:51;;;;;;;4.13;3.23;;;14.70;99.90;;;;;;5034327;28;20484;-71
2021/08/23 04:28:17;;;;;;;3.40;2.80;;;14.70;99.90;;;;;;5051390;28;20462;-71
2021/08/23 04:30:44;;;;;;;5.90;3.20;;;14.70;99.90;;;;;;5053762;28;20451;-71
2021/08/23 04:33:11;;;;;;;3.03;2.73;;;14.70;99.90;;;;;;5061069;28;20513;-71
2021/08/23 04:35:37;;;;;;;2.90;2.70;;;14.70;99.90;;;;;;5059637;28;20459;-71
2021/08/23 04:38:04;;;;;;;3.10;2.80;;;14.70;99.90;;;;;;5061140;28;20830;-71
2021/08/23 04:40:31;;;;;;;2.90;2.70;;;14.70;99.90;;;;;;5060962;28;20459;-72
2021/08/23 04:42:59;;;;;;;3.57;2.93;;;14.70;99.90;;;;;;5055445;28;20448;-71
2021/08/23 04:45:26;;;;;;;4.60;2.60;;;14.70;99.90;;;;;;5060132;28;20827;-71
2021/08/23 04:47:53;;;;;;;3.00;2.70;;;14.70;99.90;;;;;;5052839;28;20480;-71
2021/08/23 04:50:20;;;;;;;4.03;3.00;;;14.70;99.90;;;;;;5049632;28;21005;-71
2021/08/23 04:52:47;;;;;;;5.20;2.70;;;14.70;99.90;;;;;;5049168;28;20471;-71
2021/08/23 04:55:14;;;;;;;4.17;2.70;;;14.70;99.90;;;;;;5049373;28;20462;-71
2021/08/23 04:57:41;;;;;;;2.80;2.60;;;14.70;99.90;;;;;;5048968;28;20484;-71
2021/08/23 05:00:11;;;;;;;3.60;3.30;;;14.80;99.90;;;;;;5049804;28;20462;-71
2021/08/23 05:02:37;;;;;;;3.63;2.80;;;14.70;99.90;;;;;;5049449;28;20467;-70
2021/08/23 05:05:05;;;;;;;4.63;3.03;;;14.70;99.90;;;;;;5051743;28;20490;-70
2021/08/23 05:07:32;;;;;;;4.10;2.80;;;14.70;99.90;;;;;;5051169;28;20562;-70
2021/08/23 05:09:59;;;;;;;3.07;2.87;;;14.70;99.90;;;;;;5052011;28;20832;-70
2021/08/23 05:12:25;;;;;;;3.10;2.77;;;14.70;99.90;;;;;;5051613;28;20978;-70
2021/08/23 05:14:52;;;;;;;3.13;2.87;;;14.80;99.90;;;;;;5051653;28;20889;-70
2021/08/23 05:17:20;;;;;;;4.03;2.90;;;14.70;99.90;;;;;;5051358;28;20483;-70
2021/08/23 05:19:47;;;;;;;3.40;2.77;;;14.80;99.90;;;;;;5051368;28;20472;-70
2021/08/23 05:22:13;;;;;;;3.87;2.77;;;14.80;99.90;;;;;;5051472;28;20459;-70
2021/08/23 05:24:40;;;;;;;3.10;2.80;;;14.80;99.90;;;;;;5051224;28;20479;-70
2021/08/23 05:27:07;;;;;;;5.10;2.60;;;14.80;99.90;;;;;;5051543;28;20501;-70
2021/08/23 05:29:33;;;;;;;4.03;2.53;;;14.80;99.90;;;;;;5050979;28;20460;-70
2021/08/23 05:32:00;;;;;;;4.00;2.90;;;14.80;99.90;;;;;;5051317;28;20962;-70
2021/08/23 05:34:28;;;;;;;2.70;2.50;;;14.80;99.90;;;;;;5051395;28;20452;-70
2021/08/23 05:36:55;;;;;;;7.87;2.93;;;14.90;99.90;;;;;;5051445;28;20483;-70
2021/08/23 05:39:22;;;;;;;3.00;2.80;;;14.90;99.90;;;;;;5050821;28;20977;-70
2021/08/23 05:41:48;;;;;;;2.67;2.47;;;14.90;99.90;;;;;;5051370;28;20463;-70
2021/08/23 05:44:15;;;;;;;3.60;3.17;;;15.00;99.90;;;;;;5051461;28;20836;-70
2021/08/23 05:46:42;;;;;;;3.87;2.83;;;15.00;99.90;;;;;;5050844;28;20499;-70
2021/08/23 05:49:08;;;;;;;4.03;2.70;;;15.00;99.90;;;;;;5050703;28;20459;-70
2021/08/23 05:51:36;;;;;;;3.50;3.13;;;15.00;99.90;;;;;;5050956;28;20460;-71
2021/08/23 05:54:03;;;;;;;2.70;2.50;;;15.00;99.90;;;;;;5051034;28;20459;-70
2021/08/23 05:56:30;;;;;;;3.53;3.00;;;15.10;99.90;;;;;;5050893;28;20490;-70
2021/08/23 05:58:56;;;;;;;6.10;2.87;;;15.10;99.90;;;;;;5050457;28;20467;-70
2021/08/23 06:01:23;;;;;;;3.20;2.90;;;15.10;99.90;;;;;;5050856;28;20463;-70
2021/08/23 06:03:50;;;;;;;4.87;3.20;;;15.10;99.90;;;;;;5050725;28;20893;-70
2021/08/23 06:06:17;;;;;;;5.50;2.40;;;15.10;99.90;;;;;;5050834;28;20835;-70
2021/08/23 06:08:45;;;;;;;2.87;2.57;;;15.10;99.90;;;;;;5050290;28;20459;-70
2021/08/23 06:11:12;;;;;;;4.00;2.90;;;15.20;99.90;;;;;;5050871;28;20467;-70
2021/08/23 06:13:38;;;;;;;3.87;2.83;;;15.20;99.90;;;;;;5050498;28;20468;-70
2021/08/23 06:16:05;;;;;;;5.73;2.90;;;15.20;99.90;;;;;;5050786;28;20482;-71
2021/08/23 06:18:32;;;;;;;2.97;2.67;;;15.20;99.90;;;;;;5050044;28;20463;-70
2021/08/23 06:21:00;;;;;;;3.50;2.70;;;15.20;99.90;;;;;;5050985;28;20489;-70
2021/08/23 06:23:27;;;;;;;5.93;3.30;;;15.20;99.90;;;;;;5050784;28;20460;-70
2021/08/23 06:25:55;;;;;;;3.23;2.80;;;15.30;99.90;;;;;;5050621;28;20509;-70
2021/08/23 06:28:22;;;;;;;2.87;2.60;;;15.30;99.90;;;;;;5050303;28;20459;-70
2021/08/23 06:30:49;;;;;;;2.50;2.30;;;15.30;99.90;;;;;;5050427;28;20473;-70
2021/08/23 06:33:15;;;;;;;3.03;2.43;;;15.40;99.90;;;;;;5050680;28;20463;-70
2021/08/23 06:35:42;;;;;;;3.00;2.67;;;15.40;99.90;;;;;;5050362;28;20463;-70
2021/08/23 06:38:09;;;;;;;4.60;2.87;;;15.50;99.90;;;;;;5050268;28;20460;-70
2021/08/23 06:40:36;;;;;;;4.03;2.60;;;15.50;99.90;;;;;;5050409;28;20459;-70
2021/08/23 06:43:04;;;;;;;3.70;3.00;;;15.60;99.90;;;;;;5050540;28;20470;-70
2021/08/23 06:45:31;;;;;;;3.83;3.50;;;15.60;99.90;;;;;;5050402;28;20483;-70
2021/08/23 06:47:57;;;;;;;2.80;2.53;;;15.60;99.90;;;;;;5049956;28;20490;-70
2021/08/23 06:50:24;;;;;;;2.93;2.13;;;15.60;99.90;;;;;;5051231;28;20509;-70
2021/08/23 06:52:51;;;;;;;6.30;3.27;;;15.70;99.90;;;;;;5054386;28;20466;-71
2021/08/23 06:55:18;;;;;;;2.77;2.57;;;15.70;99.90;;;;;;5054422;28;20455;-70
2021/08/23 06:57:44;;;;;;;3.90;2.60;;;15.70;99.90;;;;;;5053679;28;20483;-70
2021/08/23 07:00:14;;;;;;;3.70;3.07;;;15.80;99.90;;;;;;5054409;28;20903;-70
2021/08/23 07:02:42;;;;;;;3.77;2.73;;;15.70;99.90;;;;;;5054067;28;20963;-71
2021/08/23 07:05:09;;;;;;;3.63;2.90;;;15.70;99.90;;;;;;5054116;28;20577;-71
2021/08/23 07:07:36;;;;;;;3.63;2.73;;;15.80;99.90;;;;;;5053480;28;20896;-70
2021/08/23 07:10:03;;;;;;;4.00;2.90;;;15.80;99.90;;;;;;5054043;28;20459;-70
2021/08/23 07:12:30;;;;;;;3.40;3.10;;;15.90;99.90;;;;;;5053877;28;20462;-70
2021/08/23 07:14:57;;;;;;;3.77;3.03;;;15.90;99.90;;;;;;5053973;28;20459;-70
2021/08/23 07:17:25;;;;;;;4.33;3.07;;;16.00;99.90;;;;;;5053332;28;20486;-70
2021/08/23 07:19:51;;;;;;;3.07;2.80;;;16.00;99.90;;;;;;5053853;28;20471;-70
2021/08/23 07:22:19;;;;;;;4.20;3.27;;;16.10;99.90;;;;;;5053892;28;20467;-71
2021/08/23 07:24:46;;;;;;;3.50;2.80;;;16.10;99.90;;;;;;5053535;28;20459;-70
2021/08/23 07:27:13;;;;;;;3.10;2.73;;;16.10;99.90;;;;;;5053396;28;20491;-70
2021/08/23 07:29:39;;;;;;;4.20;2.70;;;16.10;99.90;;;;;;5053372;28;20459;-70
2021/08/23 07:32:06;;;;;;;3.77;2.77;;;16.10;99.90;;;;;;5053654;28;20463;-70
2021/08/23 07:34:35;;;;;;;5.90;2.80;;;16.10;99.90;;;;;;5053529;28;20834;-70
2021/08/23 07:37:02;;;;;;;3.80;3.10;;;16.10;99.90;;;;;;5053411;28;21002;-70
2021/08/23 07:39:28;;;;;;;6.77;2.90;;;16.00;99.90;;;;;;5053374;28;20474;-70
2021/08/23 07:41:55;;;;;;;3.60;2.70;;;16.10;99.90;;;;;;5053425;28;20460;-71
2021/08/23 07:44:22;;;;;;;3.23;2.80;;;16.20;99.90;;;;;;5053551;28;20470;-71
2021/08/23 07:46:48;;;;;;;7.00;3.30;;;16.40;99.90;;;;;;5053126;28;20574;-70
2021/08/23 07:49:15;;;;;;;4.70;3.20;;;16.50;99.90;;;;;;5052909;28;20471;-70
2021/08/23 07:51:43;;;;;;;4.53;2.60;;;16.60;99.90;;;;;;5053239;28;20560;-70
2021/08/23 07:54:10;;;;;;;3.30;3.00;;;16.70;99.90;;;;;;5053247;28;20470;-70
2021/08/23 07:56:36;;;;;;;3.47;3.10;;;16.70;99.90;;;;;;5053093;28;20476;-70
2021/08/23 07:59:03;;;;;;;3.20;3.00;;;16.80;99.90;;;;;;5052590;28;20459;-70
2021/08/23 08:01:30;;;;;;;2.80;2.50;;;16.80;99.90;;;;;;5053048;28;20459;-70
2021/08/23 08:03:57;;;;;;;3.90;2.90;;;16.90;99.90;;;;;;5053202;28;20464;-70
2021/08/23 08:06:23;;;;;;;6.90;2.90;;;16.80;99.90;;;;;;5052967;28;20548;-70
2021/08/23 08:08:51;;;;;;;3.30;2.77;;;16.80;99.90;;;;;;5052782;28;20464;-70
2021/08/23 08:11:19;;;;;;;3.10;2.80;;;16.80;99.90;;;;;;5053372;28;20467;-70
2021/08/23 08:13:46;;;;;;;7.00;3.53;;;16.80;99.90;;;;;;5053277;28;20465;-70
2021/08/23 08:16:13;;;;;;;3.47;3.17;;;16.90;99.90;;;;;;5052943;28;20475;-71
2021/08/23 08:18:40;;;;;;;3.27;2.93;;;17.00;99.90;;;;;;5052306;28;20467;-70
2021/08/23 08:21:07;;;;;;;3.40;2.50;;;17.10;99.90;;;;;;5052889;28;20462;-70
2021/08/23 08:23:33;;;;;;;3.70;3.30;;;17.20;99.90;;;;;;5052643;28;20463;-70
2021/08/23 08:26:02;;;;;;;3.37;3.00;;;17.20;99.90;;;;;;5052606;28;20487;-70
2021/08/23 08:28:28;;;;;;;3.70;2.97;;;17.20;99.90;;;;;;5052371;28;20468;-70
2021/08/23 08:30:55;;;;;;;4.30;2.50;;;17.30;99.90;;;;;;5052840;28;20470;-70
2021/08/23 08:33:22;;;;;;;4.20;2.83;;;17.30;99.90;;;;;;5052534;28;20824;-70
2021/08/23 08:35:48;;;;;;;3.33;3.00;;;17.30;99.90;;;;;;5052361;28;20466;-70
2021/08/23 08:38:15;;;;;;;4.27;3.20;;;17.40;99.90;;;;;;5052008;28;20475;-70
2021/08/23 08:40:42;;;;;;;3.83;2.97;;;17.50;99.90;;;;;;5052478;28;20963;-70
2021/08/23 08:43:10;;;;;;;3.30;3.00;;;17.50;99.90;;;;;;5052351;28;21019;-70
2021/08/23 08:45:37;;;;;;;3.90;2.63;;;17.60;99.90;;;;;;5052119;28;20474;-70
2021/08/23 08:48:05;;;;;;;4.23;2.80;;;17.50;99.90;;;;;;5051934;28;20734;-71
2021/08/23 08:50:32;;;;;;;6.50;3.13;;;17.50;99.90;;;;;;5052081;28;20812;-70
2021/08/23 08:52:58;;;;;;;3.43;3.00;;;17.50;99.90;;;;;;5052167;28;20459;-70
2021/08/23 08:55:25;;;;;;;3.20;2.70;;;17.60;99.90;;;;;;5052096;28;20834;-70
2021/08/23 08:57:52;;;;;;;3.20;2.67;;;17.60;99.90;;;;;;5051407;28;20482;-70
2021/08/23 09:00:20;;;;;;;3.03;2.30;;;17.60;99.90;;;;;;5052110;28;20455;-70
2021/08/23 09:02:59;;;;;;;3.23;2.87;;;17.70;99.90;;;;;;5051769;28;20950;-70
2021/08/23 09:05:34;;;;;;;4.10;3.23;;;17.70;99.90;;;;;;5051827;28;20455;-70
2021/08/23 09:08:02;;;;;;;4.13;2.60;;;17.80;99.90;;;;;;5051307;28;21001;-70
2021/08/23 09:10:29;;;;;;;3.60;3.10;;;17.80;99.90;;;;;;5051638;28;20459;-70
2021/08/23 09:13:00;;;;;;;3.57;2.40;;;17.90;99.90;;;;;;5051145;28;20840;-70
2021/08/23 09:15:29;;;;;;;3.00;2.60;;;18.00;99.90;;;;;;5051516;28;20455;-70
2021/08/23 09:18:06;;;;;;;5.20;3.33;;;18.10;99.90;;;;;;5050545;28;20482;-70
2021/08/23 09:20:34;;;;;;;4.10;3.30;;;18.10;99.90;;;;;;5051573;28;20463;-70
2021/08/23 09:23:08;;;;;;;3.33;2.90;;;18.10;99.90;;;;;;5051877;28;20451;-71
2021/08/23 09:25:35;;;;;;;4.80;2.57;;;18.10;99.90;;;;;;5051328;28;20470;-70
2021/08/23 09:28:03;;;;;;;3.33;2.50;;;18.10;99.90;;;;;;5050957;28;20490;-70
2021/08/23 09:30:31;;;;;;;2.80;2.60;;;18.00;99.90;;;;;;5051309;28;20463;-70
2021/08/23 09:33:01;;;;;;;4.10;3.30;;;18.00;99.90;;;;;;5051401;28;20487;-70
2021/08/23 09:35:30;;;;;;;4.37;3.07;;;17.90;99.90;;;;;;5051349;28;20459;-70
2021/08/23 09:37:58;;;;;;;2.70;2.50;;;17.90;99.90;;;;;;5050844;28;20842;-70
2021/08/23 09:40:27;;;;;;;2.80;2.50;;;17.80;99.90;;;;;;5051424;28;20459;-70
2021/08/23 09:43:00;;;;;;;3.70;2.80;;;17.80;99.90;;;;;;5051127;28;20463;-70
2021/08/23 09:45:27;;;;;;;3.90;3.10;;;17.80;99.90;;;;;;5051147;28;20458;-70
2021/08/23 09:48:02;;;;;;;3.93;3.27;;;17.80;99.90;;;;;;5050408;28;20487;-70
2021/08/23 09:50:42;;;;;;;4.40;2.90;;;17.70;99.90;;;;;;5051040;28;20459;-70
2021/08/23 09:53:11;;;;;;;3.27;2.97;;;17.70;99.90;;;;;;5051143;28;20459;-70
2021/08/23 09:55:40;;;;;;;4.27;3.27;;;17.60;99.90;;;;;;5050962;28;20463;-70
2021/08/23 09:58:08;;;;;;;2.90;2.53;;;17.60;99.90;;;;;;5050594;28;20951;-71
2021/08/23 10:00:35;;;;;;;4.80;3.20;;;17.60;99.90;;;;;;5051150;28;20455;-70
2021/08/23 10:03:13;;;;;;;2.73;2.53;;;17.60;99.90;;;;;;5050942;28;20470;-70
2021/08/23 10:05:42;;;;;;;3.03;2.83;;;17.60;99.90;;;;;;5050707;28;20487;-70
2021/08/23 10:08:10;;;;;;;3.77;3.00;;;17.60;99.90;;;;;;5050261;28;21006;-70
2021/08/23 10:10:40;;;;;;;3.30;3.00;;;17.60;99.90;;;;;;5050969;28;20455;-70
2021/08/23 10:13:07;;;;;;;3.77;2.70;;;17.60;99.90;;;;;;5050970;28;20877;-70
2021/08/23 10:15:33;;;;;;;2.90;2.60;;;17.50;99.90;;;;;;5050709;28;20464;-70
2021/08/23 10:18:02;;;;;;;2.80;2.60;;;17.60;99.90;;;;;;5050266;28;20475;-70
2021/08/23 10:20:30;;;;;;;3.33;2.90;;;17.60;99.90;;;;;;5088249;22;20484;-68
2021/08/23 10:22:58;;;;;;;3.00;2.70;;;17.60;99.90;;;;;;5058705;28;20452;-68
2021/08/23 10:25:25;;;;;;;5.60;2.97;;;17.70;99.90;;;;;;5071351;28;20461;-67
2021/08/23 10:27:52;;;;;;;3.00;2.67;;;17.80;99.90;;;;;;5073942;28;20493;-67
2021/08/23 10:30:23;;;;;;;3.70;2.53;;;17.90;99.90;;;;;;5074554;28;20466;-68
2021/08/23 10:32:50;;;;;;;3.17;2.87;;;18.00;99.90;;;;;;5074534;28;20485;-68
2021/08/23 10:35:20;;;;;;;3.03;2.73;;;18.10;99.90;;;;;;5074517;28;20458;-68
2021/08/23 10:37:47;;;;;;;5.47;3.60;;;18.20;99.90;;;;;;5074090;28;20486;-68
2021/08/23 10:40:14;;;;;;;3.73;3.43;;;18.20;99.90;;;;;;5074306;28;20458;-68
2021/08/23 10:42:46;;;;;;;3.47;3.17;;;18.40;99.90;;;;;;5074381;28;20446;-68
2021/08/23 10:45:16;;;;;;;3.80;3.20;;;18.40;99.90;;;;;;5074285;28;20551;-68
2021/08/23 10:47:44;;;;;;;3.90;3.40;;;18.50;99.90;;;;;;5073836;28;20868;-68
2021/08/23 10:50:23;;;;;;;5.30;3.40;;;18.50;99.90;;;;;;5074202;28;20884;-68
2021/08/23 10:52:50;;;;;;;4.67;3.30;;;18.50;99.90;;;;;;5074292;28;20965;-68
2021/08/23 10:55:21;;;;;;;4.17;3.77;;;18.50;99.90;;;;;;5074121;28;20466;-68
2021/08/23 10:57:48;;;;;;;4.20;3.20;;;18.40;99.90;;;;;;5073472;28;21012;-68
2021/08/23 11:00:17;;;;;;;3.60;3.30;;;18.40;99.90;;;;;;5073975;28;20470;-68
2021/08/23 11:02:44;;;;;;;4.40;3.63;;;18.30;99.90;;;;;;5074252;28;20494;-68
2021/08/23 11:05:13;;;;;;;4.00;3.20;;;18.20;99.90;;;;;;5073772;28;20469;-68
2021/08/23 11:07:46;;;;;;;4.13;3.40;;;18.20;99.90;;;;;;5073312;28;20514;-68
2021/08/23 11:10:15;;;;;;;3.80;3.10;;;18.20;99.90;;;;;;5073623;28;20511;-68
2021/08/23 11:12:46;;;;;;;4.07;3.37;;;18.20;99.90;;;;;;5073877;28;20466;-68
2021/08/23 11:15:16;;;;;;;3.73;3.30;;;18.10;99.90;;;;;;5073562;28;20458;-68
2021/08/23 11:17:49;;;;;;;3.90;3.47;;;18.10;99.90;;;;;;5073305;28;20475;-68
2021/08/23 11:20:21;;;;;;;6.10;3.47;;;18.00;99.90;;;;;;5073200;28;20977;-68
2021/08/23 11:22:54;;;;;;;4.43;3.33;;;18.10;99.90;;;;;;5073704;28;20500;-68
2021/08/23 11:25:27;;;;;;;4.60;3.13;;;18.10;99.90;;;;;;5073215;28;20462;-68
2021/08/23 11:27:54;;;;;;;4.33;3.60;;;18.10;99.90;;;;;;5072969;28;20489;-68
2021/08/23 11:30:28;;;;;;;3.23;2.93;;;18.10;99.90;;;;;;5073184;28;20465;-68
2021/08/23 11:32:55;;;;;;;3.47;3.17;;;18.00;99.90;;;;;;5073500;28;20453;-68
2021/08/23 11:35:22;;;;;;;4.17;3.23;;;18.00;99.90;;;;;;5073161;28;20862;-68
2021/08/23 11:37:57;;;;;;;4.83;4.00;;;17.90;99.90;;;;;;5072465;28;20487;-68
2021/08/23 11:40:23;;;;;;;5.17;3.73;;;17.90;99.90;;;;;;5073090;28;20462;-68
2021/08/23 11:42:53;;;;;;;4.13;3.77;;;17.90;99.90;;;;;;5072145;28;20470;-68
2021/08/23 11:45:21;;;;;;;3.50;3.20;;;17.90;99.90;;;;;;5069918;28;20490;-68
2021/08/23 11:47:50;;;;;;;4.43;3.63;;;17.90;99.90;;;;;;5072388;28;20490;-68
2021/08/23 11:50:18;;;;;;;4.00;3.60;;;17.90;99.90;;;;;;5072581;28;20536;-68
2021/08/23 11:52:45;;;;;;;4.27;3.60;;;17.90;99.90;;;;;;5072868;28;20490;-68
2021/08/23 11:55:24;;;;;;;4.67;3.30;;;17.90;99.90;;;;;;5072350;28;20976;-68
2021/08/23 11:57:57;;;;;;;4.23;3.30;;;18.00;99.90;;;;;;5072216;28;20506;-68
2021/08/23 12:00:24;;;;;;;6.80;4.50;;;18.20;99.90;;;;;;5072448;28;20498;-68
2021/08/23 12:03:02;;;;;;;4.73;3.30;;;18.60;99.90;;;;;;5072862;28;20466;-68
2021/08/23 12:05:33;;;;;;;4.13;3.70;;;19.10;99.90;;;;;;5072575;28;20957;-68
2021/08/23 12:08:00;;;;;;;3.87;3.47;;;19.40;99.90;;;;;;5072025;28;20489;-68
2021/08/23 12:10:29;;;;;;;3.17;2.90;;;19.60;99.90;;;;;;5072492;28;20826;-68
2021/08/23 12:13:14;;;;;;;3.87;3.20;;;19.60;99.90;;;;;;5072344;28;20466;-68
2021/08/23 12:15:56;;;;;;;3.10;2.80;;;19.40;99.90;;;;;;5072411;28;20572;-68
2021/08/23 12:18:34;;;;;;;6.30;3.17;;;19.20;99.90;;;;;;5071586;28;20878;-68
2021/08/23 12:21:12;;;;;;;2.70;2.50;;;19.00;99.90;;;;;;5072067;28;20470;-68
2021/08/23 12:24:01;;;;;;;2.97;2.53;;;18.90;99.90;;;;;;5072178;28;21146;-68
2021/08/23 12:26:32;;;;;;;4.23;2.40;;;18.80;99.90;;;;;;5072012;28;20481;-68
2021/08/23 12:29:01;;;;;;;3.10;2.80;;;18.70;99.90;;;;;;5071639;28;20541;-68
2021/08/23 12:31:30;;;;;;;3.93;2.47;;;18.80;99.90;;;;;;5072105;28;20454;-68
2021/08/23 12:33:57;;;;;;;3.20;2.90;;;19.00;99.90;;;;;;5072052;28;20455;-69
2021/08/23 12:36:24;;;;;;;4.07;2.67;;;19.30;99.90;;;;;;5071732;28;20481;-68
2021/08/23 12:38:50;;;;;;;3.70;2.70;;;19.50;99.90;;;;;;5071141;28;20454;-68
2021/08/23 12:41:17;;;;;;;3.43;2.40;;;19.50;99.90;;;;;;5071676;28;20841;-68
2021/08/23 12:43:46;;;;;;;3.10;2.80;;;19.50;99.90;;;;;;5071961;28;20806;-68
2021/08/23 12:46:13;;;;;;;3.17;2.87;;;19.50;99.90;;;;;;5071518;28;20478;-68
2021/08/23 12:48:40;;;;;;;3.90;2.67;;;19.40;99.90;;;;;;5070311;28;20495;-68
2021/08/23 12:51:07;;;;;;;2.97;2.60;;;19.30;99.90;;;;;;5071594;28;20467;-68
2021/08/23 12:53:33;;;;;;;4.20;2.57;;;19.20;99.90;;;;;;5071720;28;20522;-68